Time;durP1;ratioP1;P1;durP2;ratioP2;P2;SDS_P1;SDS_P2;PMS_P1;PMS_P2;Temp;Humidity;BMP_temperature;BMP_pressure;BME280_temperature;BME280_humidity;BME280_pressure;Samples;Min_cycle;Max_cycle;Signal;HPM_P1;HPM_P2
2021/07/27 00:00:21;;;;;;;4.15;3.33;;;;;;;;;;5032197;28;20056;-62
2021/07/27 00:02:46;;;;;;;6.72;3.20;;;;;;;;;;5030966;28;20129;-63
2021/07/27 00:05:11;;;;;;;4.53;3.03;;;;;;;;;;5031484;28;20017;-64
2021/07/27 00:07:38;;;;;;;6.07;3.50;;;;;;;;;;5030919;28;20393;-63
2021/07/27 00:10:05;;;;;;;5.10;2.92;;;;;;;;;;5030347;28;20042;-64
2021/07/27 00:12:31;;;;;;;5.22;3.22;;;;;;;;;;5030262;28;20033;-64
2021/07/27 00:14:56;;;;;;;4.63;3.17;;;;;;;;;;5028214;28;20037;-64
2021/07/27 00:17:21;;;;;;;3.90;3.22;;;;;;;;;;5032326;28;20030;-64
2021/07/27 00:19:47;;;;;;;5.03;3.22;;;;;;;;;;5030230;28;20071;-64
2021/07/27 00:22:12;;;;;;;3.42;3.10;;;;;;;;;;5031058;28;20029;-65
2021/07/27 00:24:37;;;;;;;6.47;3.30;;;;;;;;;;5027847;28;20021;-62
2021/07/27 00:27:03;;;;;;;3.63;3.00;;;;;;;;;;5029096;28;20029;-63
2021/07/27 00:29:28;;;;;;;4.47;3.33;;;;;;;;;;5027575;28;20033;-62
2021/07/27 00:31:53;;;;;;;4.68;3.50;;;;;;;;;;5034678;28;20025;-64
2021/07/27 00:34:19;;;;;;;4.70;3.00;;;;;;;;;;5027669;28;20121;-63
2021/07/27 00:36:44;;;;;;;3.33;2.83;;;;;;;;;;5029409;28;20033;-63
2021/07/27 00:39:10;;;;;;;4.50;3.15;;;;;;;;;;5030514;28;20036;-62
2021/07/27 00:41:35;;;;;;;5.03;3.25;;;;;;;;;;5030127;28;20026;-62
2021/07/27 00:44:01;;;;;;;5.10;3.35;;;;;;;;;;5028567;28;20025;-64
2021/07/27 00:46:26;;;;;;;3.53;3.20;;;;;;;;;;5030370;28;20025;-64
2021/07/27 00:48:52;;;;;;;3.85;3.20;;;;;;;;;;5029178;28;20033;-65
2021/07/27 00:51:17;;;;;;;3.38;3.08;;;;;;;;;;5033128;28;20382;-63
2021/07/27 00:53:43;;;;;;;4.05;3.00;;;;;;;;;;5028314;28;20051;-65
2021/07/27 00:56:08;;;;;;;4.93;3.55;;;;;;;;;;5030324;28;20164;-65
2021/07/27 00:58:34;;;;;;;5.60;3.20;;;;;;;;;;5027980;28;20089;-65
2021/07/27 01:00:59;;;;;;;4.70;3.20;;;;;;;;;;5027027;28;20030;-65
2021/07/27 01:03:25;;;;;;;4.10;3.22;;;;;;;;;;5028549;28;20025;-64
2021/07/27 01:05:50;;;;;;;4.97;3.47;;;;;;;;;;5029797;28;20028;-64
2021/07/27 01:08:16;;;;;;;5.05;3.00;;;;;;;;;;5031515;28;20116;-65
2021/07/27 01:10:41;;;;;;;5.10;3.20;;;;;;;;;;5027350;28;20037;-63
2021/07/27 01:13:07;;;;;;;3.92;3.30;;;;;;;;;;5029331;28;20029;-63
2021/07/27 01:15:33;;;;;;;3.58;3.08;;;;;;;;;;5029465;28;20033;-65
2021/07/27 01:18:05;;;;;;;3.42;2.88;;;;;;;;;;5027150;28;20029;-63
2021/07/27 01:39:22;;;;;;;4.15;3.30;;;;;;;;;;5028648;28;20036;-64
2021/07/27 01:42:05;;;;;;;4.15;3.40;;;;;;;;;;5028647;28;20112;-64
2021/07/27 01:44:32;;;;;;;4.95;3.10;;;;;;;;;;5026094;28;20025;-63
2021/07/27 01:46:58;;;;;;;4.63;3.58;;;;;;;;;;5026285;28;20474;-63
2021/07/27 01:49:24;;;;;;;5.15;3.15;;;;;;;;;;5028452;28;20025;-62
2021/07/27 01:51:49;;;;;;;4.35;3.60;;;;;;;;;;5029009;28;20025;-64
2021/07/27 01:54:16;;;;;;;4.65;3.55;;;;;;;;;;5030804;28;20033;-63
2021/07/27 01:56:48;;;;;;;;;;;;;;;;;;5028658;28;20025;-64
2021/07/27 01:59:14;;;;;;;4.28;3.30;;;;;;;;;;5027916;28;19924;-64
2021/07/27 02:01:40;;;;;;;4.13;3.33;;;;;;;;;;5027998;28;20041;-64
2021/07/27 02:04:05;;;;;;;5.10;3.33;;;;;;;;;;5027039;28;20037;-63
2021/07/27 02:06:31;;;;;;;4.45;3.50;;;;;;;;;;5027657;28;20049;-63
2021/07/27 02:09:00;;;;;;;4.40;4.00;;;;;;;;;;5027092;28;20028;-64
2021/07/27 02:11:37;;;;;;;5.45;3.65;;;;;;;;;;5028543;28;20488;-63
2021/07/27 02:14:03;;;;;;;4.35;3.47;;;;;;;;;;5029053;28;20032;-62
2021/07/27 02:16:28;;;;;;;5.32;3.67;;;;;;;;;;5029607;28;20033;-62
2021/07/27 02:19:00;;;;;;;4.53;3.67;;;;;;;;;;5027157;28;20025;-64
2021/07/27 02:21:25;;;;;;;3.92;3.53;;;;;;;;;;5028246;28;20036;-64
2021/07/27 02:23:50;;;;;;;4.25;3.65;;;;;;;;;;5027959;28;20025;-62
2021/07/27 02:26:16;;;;;;;5.35;3.70;;;;;;;;;;5030376;28;20037;-65
2021/07/27 02:28:41;;;;;;;4.15;3.55;;;;;;;;;;5028487;28;20036;-64
2021/07/27 02:31:12;;;;;;;5.32;3.47;;;;;;;;;;5025073;28;20024;-64
2021/07/27 02:33:38;;;;;;;4.20;3.40;;;;;;;;;;5028847;28;20099;-62
2021/07/27 02:36:03;;;;;;;4.60;3.70;;;;;;;;;;5025842;28;20660;-63
2021/07/27 02:38:29;;;;;;;5.85;3.90;;;;;;;;;;5029333;28;20067;-64
2021/07/27 02:40:54;;;;;;;5.88;4.00;;;;;;;;;;5032549;28;21734;-64
2021/07/27 02:43:19;;;;;;;5.60;3.88;;;;;;;;;;5026768;28;20025;-62
2021/07/27 02:45:45;;;;;;;5.72;3.85;;;;;;;;;;5027914;28;20209;-63
2021/07/27 02:48:10;;;;;;;4.10;3.70;;;;;;;;;;5025643;28;20030;-63
2021/07/27 02:50:35;;;;;;;3.90;3.50;;;;;;;;;;5028478;28;20032;-62
2021/07/27 02:53:01;;;;;;;5.03;3.78;;;;;;;;;;5028461;28;20524;-63
2021/07/27 02:55:26;;;;;;;5.55;4.03;;;;;;;;;;5027007;28;20056;-64
2021/07/27 02:57:51;;;;;;;4.30;3.42;;;;;;;;;;5033171;28;20036;-64
2021/07/27 03:00:18;;;;;;;5.95;3.90;;;;;;;;;;5030570;28;20071;-62
2021/07/27 03:02:45;;;;;;;6.53;3.90;;;;;;;;;;5038670;28;20024;-62
2021/07/27 03:05:12;;;;;;;4.43;3.50;;;;;;;;;;5030355;28;20072;-64
2021/07/27 03:10:19;;;;;;;5.38;3.53;;;;;;;;;;5031843;28;19947;-63
2021/07/27 03:12:48;;;;;;;7.03;4.38;;;;;;;;;;5029675;28;20676;-64
2021/07/27 03:15:14;;;;;;;4.05;3.63;;;;;;;;;;5027924;28;20033;-64
2021/07/27 03:17:40;;;;;;;4.90;3.72;;;;;;;;;;5027996;28;20040;-63
2021/07/27 03:20:10;;;;;;;4.85;4.03;;;;;;;;;;5030230;28;20037;-64
2021/07/27 03:22:36;;;;;;;5.50;4.10;;;;;;;;;;5029979;28;20382;-62
2021/07/27 03:25:02;;;;;;;6.20;4.00;;;;;;;;;;5031994;28;20021;-64
2021/07/27 03:27:28;;;;;;;6.75;4.22;;;;;;;;;;5029255;28;20360;-62
2021/07/27 03:29:53;;;;;;;6.85;4.43;;;;;;;;;;5033682;28;20033;-63
2021/07/27 03:32:18;;;;;;;7.68;4.28;;;;;;;;;;5030962;28;20371;-62
2021/07/27 03:34:44;;;;;;;4.70;4.20;;;;;;;;;;5031635;28;20041;-63
2021/07/27 03:37:13;;;;;;;5.30;4.10;;;;;;;;;;5029968;28;20025;-63
2021/07/27 03:39:39;;;;;;;5.20;3.67;;;;;;;;;;5030202;28;20033;-62
2021/07/27 03:42:05;;;;;;;5.95;3.95;;;;;;;;;;5030196;28;20037;-62
2021/07/27 03:44:30;;;;;;;5.05;3.83;;;;;;;;;;5029213;28;20078;-63
2021/07/27 03:47:05;;;;;;;6.65;4.07;;;;;;;;;;5030857;28;20037;-64
2021/07/27 03:49:31;;;;;;;6.72;4.60;;;;;;;;;;5029236;28;20104;-63
2021/07/27 03:52:00;;;;;;;6.63;4.40;;;;;;;;;;5030316;28;20096;-62
2021/07/27 03:54:29;;;;;;;6.32;4.22;;;;;;;;;;5033769;28;20533;-63
2021/07/27 03:56:55;;;;;;;5.53;4.13;;;;;;;;;;5030114;28;20069;-63
2021/07/27 03:59:20;;;;;;;5.55;4.50;;;;;;;;;;5029408;28;20059;-63
2021/07/27 04:01:46;;;;;;;7.45;4.90;;;;;;;;;;5029983;28;20034;-64
2021/07/27 04:04:11;;;;;;;7.38;4.45;;;;;;;;;;5035430;28;20052;-63
2021/07/27 04:06:37;;;;;;;5.50;4.00;;;;;;;;;;5030001;28;20025;-63
2021/07/27 04:09:02;;;;;;;6.35;4.05;;;;;;;;;;5029925;28;20041;-64
2021/07/27 04:11:27;;;;;;;7.13;4.60;;;;;;;;;;5029794;28;20056;-65
2021/07/27 04:13:53;;;;;;;6.68;4.22;;;;;;;;;;5029045;28;20055;-64
2021/07/27 04:16:18;;;;;;;4.65;4.00;;;;;;;;;;5030852;28;20033;-63
2021/07/27 04:18:48;;;;;;;6.65;4.70;;;;;;;;;;5030778;28;20021;-65
2021/07/27 04:21:13;;;;;;;5.75;4.32;;;;;;;;;;5032391;28;20540;-65
2021/07/27 04:23:39;;;;;;;6.55;4.63;;;;;;;;;;5026317;28;20033;-65
2021/07/27 04:26:04;;;;;;;6.67;4.10;;;;;;;;;;4325261;28;10000848;-65
2021/07/27 04:28:29;;;;;;;5.13;4.28;;;;;;;;;;5025806;28;20504;-65
2021/07/27 04:30:55;;;;;;;6.38;4.28;;;;;;;;;;5022931;28;20768;-64
2021/07/27 04:33:26;;;;;;;6.47;4.20;;;;;;;;;;5022136;28;20080;-65
2021/07/27 04:35:53;;;;;;;6.10;4.43;;;;;;;;;;5024194;28;20064;-65
2021/07/27 04:38:19;;;;;;;7.05;4.28;;;;;;;;;;5023629;28;20033;-63
2021/07/27 04:40:44;;;;;;;5.93;4.20;;;;;;;;;;5025098;28;20033;-64
2021/07/27 04:43:12;;;;;;;4.75;4.22;;;;;;;;;;5024065;28;20051;-64
2021/07/27 04:45:38;;;;;;;6.03;4.40;;;;;;;;;;5024251;28;20129;-64
2021/07/27 04:48:03;;;;;;;6.43;3.70;;;;;;;;;;5024068;28;20378;-64
2021/07/27 04:50:28;;;;;;;4.82;3.88;;;;;;;;;;5025016;28;20029;-63
2021/07/27 04:53:00;;;;;;;4.35;3.45;;;;;;;;;;5022598;28;20824;-64
2021/07/27 04:55:25;;;;;;;5.75;3.80;;;;;;;;;;5024024;28;20170;-63
2021/07/27 04:57:51;;;;;;;4.60;4.10;;;;;;;;;;5022941;28;20033;-65
2021/07/27 05:00:27;;;;;;;5.07;4.05;;;;;;;;;;5021218;28;20029;-65
2021/07/27 05:02:52;;;;;;;4.15;3.70;;;;;;;;;;5023834;28;20025;-62
2021/07/27 05:05:18;;;;;;;7.80;3.72;;;;;;;;;;5023457;28;20030;-64
2021/07/27 05:07:45;;;;;;;5.68;3.67;;;;;;;;;;5023516;28;20033;-63
2021/07/27 05:10:11;;;;;;;3.67;3.35;;;;;;;;;;5023134;28;20129;-65
2021/07/27 05:12:37;;;;;;;4.75;3.40;;;;;;;;;;5023648;28;20044;-62
2021/07/27 05:15:09;;;;;;;4.03;3.47;;;;;;;;;;5023771;28;20079;-66
2021/07/27 05:17:37;;;;;;;3.45;3.13;;;;;;;;;;5021808;28;20833;-63
2021/07/27 05:20:04;;;;;;;5.50;3.53;;;;;;;;;;5022417;28;20025;-63
2021/07/27 05:22:30;;;;;;;5.00;3.67;;;;;;;;;;5022854;28;20053;-65
2021/07/27 05:24:55;;;;;;;4.88;4.07;;;;;;;;;;5021396;28;20163;-65
2021/07/27 05:27:24;;;;;;;4.22;3.42;;;;;;;;;;5023172;28;20029;-66
2021/07/27 05:29:51;;;;;;;5.07;3.80;;;;;;;;;;5023648;28;20040;-65
2021/07/27 05:32:17;;;;;;;5.32;4.20;;;;;;;;;;5023546;28;20370;-65
2021/07/27 05:34:42;;;;;;;5.45;3.60;;;;;;;;;;5024141;28;20050;-66
2021/07/27 05:37:07;;;;;;;5.07;3.53;;;;;;;;;;5027367;28;20682;-66
2021/07/27 05:39:33;;;;;;;7.93;3.88;;;;;;;;;;5033470;28;20842;-66
2021/07/27 05:42:01;;;;;;;5.40;4.18;;;;;;;;;;5033208;28;20045;-65
2021/07/27 05:44:26;;;;;;;4.53;3.80;;;;;;;;;;5024561;28;20137;-65
2021/07/27 05:46:53;;;;;;;5.57;3.90;;;;;;;;;;5025052;28;20111;-64
2021/07/27 05:49:19;;;;;;;6.63;3.80;;;;;;;;;;5022127;28;20038;-65
2021/07/27 05:51:45;;;;;;;6.65;4.43;;;;;;;;;;5025149;28;20362;-64
2021/07/27 05:54:11;;;;;;;5.03;4.20;;;;;;;;;;5028809;28;20047;-65
2021/07/27 05:56:36;;;;;;;5.68;4.13;;;;;;;;;;5029643;28;20025;-65
2021/07/27 05:59:01;;;;;;;4.43;4.00;;;;;;;;;;5026523;28;20024;-63
2021/07/27 06:01:27;;;;;;;5.43;3.70;;;;;;;;;;5028985;28;20136;-65
2021/07/27 06:03:52;;;;;;;4.70;3.58;;;;;;;;;;5030089;28;20041;-63
2021/07/27 06:06:17;;;;;;;4.70;3.63;;;;;;;;;;5027376;28;20115;-63
2021/07/27 06:08:43;;;;;;;4.35;3.55;;;;;;;;;;5028399;28;20482;-63
2021/07/27 06:11:09;;;;;;;5.18;4.00;;;;;;;;;;5024448;28;20490;-63
2021/07/27 06:13:34;;;;;;;5.95;4.20;;;;;;;;;;5031873;28;20029;-64
2021/07/27 06:16:06;;;;;;;4.63;4.07;;;;;;;;;;5032873;28;20051;-64
2021/07/27 06:18:32;;;;;;;6.07;4.15;;;;;;;;;;5030587;28;20483;-62
2021/07/27 06:20:58;;;;;;;6.28;4.00;;;;;;;;;;5026818;28;20029;-64
2021/07/27 06:23:24;;;;;;;5.55;3.90;;;;;;;;;;5025907;28;20460;-64
2021/07/27 06:25:49;;;;;;;5.43;4.10;;;;;;;;;;5029173;28;20036;-62
2021/07/27 06:28:14;;;;;;;4.80;3.67;;;;;;;;;;5028552;28;20091;-64
2021/07/27 06:30:40;;;;;;;6.47;4.78;;;;;;;;;;5030142;28;20084;-64
2021/07/27 06:33:05;;;;;;;5.40;4.10;;;;;;;;;;5033923;28;20050;-61
2021/07/27 06:35:30;;;;;;;6.18;4.70;;;;;;;;;;5032699;28;20076;-63
2021/07/27 06:37:55;;;;;;;8.90;4.18;;;;;;;;;;5028509;28;20021;-65
2021/07/27 06:40:21;;;;;;;4.82;4.30;;;;;;;;;;5028804;28;20132;-62
2021/07/27 06:42:46;;;;;;;4.63;3.90;;;;;;;;;;5032853;28;20486;-62
2021/07/27 06:45:12;;;;;;;5.53;4.78;;;;;;;;;;5031680;28;20041;-65
2021/07/27 06:47:37;;;;;;;5.35;4.25;;;;;;;;;;5024686;28;20034;-62
2021/07/27 06:50:03;;;;;;;6.68;4.82;;;;;;;;;;5021383;28;20049;-62
2021/07/27 06:52:28;;;;;;;5.22;4.60;;;;;;;;;;5030022;28;20045;-63
2021/07/27 06:54:53;;;;;;;8.27;5.00;;;;;;;;;;5023403;28;20056;-63
2021/07/27 06:57:19;;;;;;;7.40;4.65;;;;;;;;;;5032931;28;20025;-63
2021/07/27 06:59:44;;;;;;;5.85;4.78;;;;;;;;;;5029257;28;20071;-63
2021/07/27 07:02:09;;;;;;;6.97;4.93;;;;;;;;;;5030625;28;20022;-62
2021/07/27 07:04:35;;;;;;;6.72;4.75;;;;;;;;;;5031301;28;20025;-64
2021/07/27 07:07:00;;;;;;;7.40;4.07;;;;;;;;;;5035682;28;20025;-62
2021/07/27 07:09:25;;;;;;;4.90;3.97;;;;;;;;;;5035058;28;20508;-65
2021/07/27 07:11:51;;;;;;;5.65;4.40;;;;;;;;;;5034074;28;20489;-63
2021/07/27 07:14:18;;;;;;;6.30;4.60;;;;;;;;;;5013507;28;20467;-63
2021/07/27 07:16:43;;;;;;;6.60;4.63;;;;;;;;;;5025794;28;20022;-65
2021/07/27 07:19:08;;;;;;;6.78;5.03;;;;;;;;;;5021933;28;20040;-63
2021/07/27 07:21:34;;;;;;;12.93;5.13;;;;;;;;;;5032105;28;20025;-62
2021/07/27 07:23:59;;;;;;;9.43;4.45;;;;;;;;;;5029723;28;20029;-63
2021/07/27 07:26:25;;;;;;;5.53;3.97;;;;;;;;;;5029245;28;20060;-63
2021/07/27 07:28:50;;;;;;;5.75;4.18;;;;;;;;;;5024632;28;20029;-66
2021/07/27 07:31:18;;;;;;;5.45;4.15;;;;;;;;;;5024218;28;20376;-63
2021/07/27 07:33:44;;;;;;;6.65;4.32;;;;;;;;;;3985754;28;10000828;-66
2021/07/27 07:36:16;;;;;;;6.60;4.20;;;;;;;;;;5028419;28;20028;-61
2021/07/27 07:38:42;;;;;;;4.75;4.25;;;;;;;;;;5025098;28;20040;-62
2021/07/27 07:41:09;;;;;;;5.82;4.32;;;;;;;;;;5033988;28;20029;-63
2021/07/27 07:43:35;;;;;;;6.30;4.82;;;;;;;;;;5027652;28;20437;-64
2021/07/27 07:46:01;;;;;;;7.88;4.75;;;;;;;;;;5031191;28;20044;-61
2021/07/27 07:48:27;;;;;;;5.63;4.25;;;;;;;;;;5028616;28;20030;-64
2021/07/27 07:50:52;;;;;;;5.32;4.75;;;;;;;;;;5018763;28;20025;-63
2021/07/27 07:53:17;;;;;;;5.97;4.68;;;;;;;;;;5029776;28;20040;-66
2021/07/27 07:55:43;;;;;;;6.97;5.18;;;;;;;;;;5030163;28;20037;-65
2021/07/27 07:58:08;;;;;;;8.02;5.28;;;;;;;;;;5027279;28;20553;-65
2021/07/27 08:00:33;;;;;;;5.78;4.80;;;;;;;;;;5026002;28;20765;-64
2021/07/27 08:03:02;;;;;;;7.13;5.10;;;;;;;;;;5031836;28;20386;-64
2021/07/27 08:05:27;;;;;;;7.45;4.80;;;;;;;;;;5030708;28;20118;-66
2021/07/27 08:07:53;;;;;;;7.10;4.40;;;;;;;;;;5032554;28;20033;-63
2021/07/27 08:10:18;;;;;;;5.75;4.70;;;;;;;;;;5038130;28;20030;-64
2021/07/27 08:12:46;;;;;;;7.68;4.57;;;;;;;;;;5030956;28;20116;-63
2021/07/27 08:15:12;;;;;;;8.10;5.10;;;;;;;;;;5026760;28;20040;-65
2021/07/27 08:17:39;;;;;;;8.77;4.65;;;;;;;;;;5028232;28;20033;-66
2021/07/27 08:20:06;;;;;;;6.13;4.47;;;;;;;;;;5026817;28;20058;-66
2021/07/27 08:22:31;;;;;;;5.83;4.77;;;;;;;;;;5031613;28;20021;-65
2021/07/27 08:24:56;;;;;;;6.50;4.63;;;;;;;;;;5019210;28;20264;-66
2021/07/27 08:27:22;;;;;;;7.40;4.90;;;;;;;;;;5020543;28;20021;-63
2021/07/27 08:29:47;;;;;;;7.28;5.07;;;;;;;;;;5024006;28;20037;-65
2021/07/27 08:32:13;;;;;;;7.85;5.10;;;;;;;;;;5029420;28;20040;-62
2021/07/27 08:34:41;;;;;;;5.70;4.60;;;;;;;;;;5025021;28;20042;-63
2021/07/27 08:37:07;;;;;;;6.20;5.10;;;;;;;;;;5029611;28;20037;-64
2021/07/27 08:39:33;;;;;;;5.85;4.82;;;;;;;;;;5028750;28;20155;-64
2021/07/27 08:42:03;;;;;;;5.80;5.00;;;;;;;;;;5027902;28;20052;-64
2021/07/27 08:44:31;;;;;;;5.65;4.70;;;;;;;;;;5024912;28;20188;-64
2021/07/27 08:47:00;;;;;;;5.90;4.65;;;;;;;;;;5027471;28;20029;-67
2021/07/27 08:49:25;;;;;;;6.07;5.32;;;;;;;;;;5028640;28;20040;-63
2021/07/27 08:51:51;;;;;;;7.20;5.35;;;;;;;;;;5028145;28;20009;-63
2021/07/27 08:54:16;;;;;;;8.25;5.00;;;;;;;;;;5025381;28;20124;-64
2021/07/27 08:56:48;;;;;;;6.15;5.15;;;;;;;;;;5028497;28;20045;-64
2021/07/27 08:59:15;;;;;;;8.27;5.18;;;;;;;;;;5022721;28;20029;-66
2021/07/27 09:01:40;;;;;;;6.05;4.85;;;;;;;;;;5024467;28;20034;-64
2021/07/27 09:04:05;;;;;;;6.05;4.85;;;;;;;;;;5026319;28;20103;-63
2021/07/27 09:06:31;;;;;;;6.27;5.13;;;;;;;;;;5026448;28;20470;-65
2021/07/27 09:09:06;;;;;;;6.53;4.93;;;;;;;;;;5026117;28;20079;-65
2021/07/27 09:11:33;;;;;;;6.82;5.00;;;;;;;;;;5024407;28;20111;-66
2021/07/27 09:13:58;;;;;;;5.32;4.78;;;;;;;;;;5030273;28;20037;-63
2021/07/27 09:16:24;;;;;;;6.10;5.00;;;;;;;;;;5026272;28;20509;-64
2021/07/27 09:19:00;;;;;;;6.05;4.65;;;;;;;;;;5028659;28;20062;-63
2021/07/27 09:21:25;;;;;;;7.47;4.80;;;;;;;;;;5027434;28;20064;-65
2021/07/27 09:23:51;;;;;;;6.43;4.85;;;;;;;;;;5028252;28;20738;-65
2021/07/27 09:26:18;;;;;;;6.07;5.17;;;;;;;;;;5026604;28;20521;-64
2021/07/27 09:28:43;;;;;;;7.18;4.90;;;;;;;;;;5026315;28;20053;-64
2021/07/27 09:31:09;;;;;;;6.50;5.40;;;;;;;;;;5019959;28;20114;-65
2021/07/27 09:33:35;;;;;;;9.23;5.47;;;;;;;;;;5021627;28;20503;-64
2021/07/27 09:36:01;;;;;;;7.68;5.60;;;;;;;;;;5025736;28;20029;-64
2021/07/27 09:38:31;;;;;;;6.35;5.72;;;;;;;;;;5025848;28;20033;-66
2021/07/27 09:41:00;;;;;;;5.57;4.90;;;;;;;;;;5023870;28;20026;-64
2021/07/27 09:43:27;;;;;;;7.40;5.78;;;;;;;;;;5026016;28;20680;-65
2021/07/27 09:45:55;;;;;;;6.90;5.93;;;;;;;;;;5020381;28;20562;-65
2021/07/27 09:48:21;;;;;;;7.72;5.80;;;;;;;;;;5024393;28;20021;-66
2021/07/27 09:50:49;;;;;;;6.78;5.97;;;;;;;;;;5027394;28;20033;-65
2021/07/27 09:53:15;;;;;;;7.50;6.00;;;;;;;;;;5024442;28;20029;-63
2021/07/27 09:55:40;;;;;;;7.78;5.88;;;;;;;;;;5023802;28;20036;-66
2021/07/27 09:58:06;;;;;;;6.90;5.50;;;;;;;;;;5026834;28;20504;-64
2021/07/27 10:00:35;;;;;;;7.57;5.40;;;;;;;;;;5024743;28;21141;-63
2021/07/27 10:03:03;;;;;;;7.47;5.50;;;;;;;;;;5028408;28;20053;-63
2021/07/27 10:05:28;;;;;;;6.45;5.65;;;;;;;;;;5025905;28;20079;-67
2021/07/27 10:07:56;;;;;;;7.00;5.87;;;;;;;;;;5027126;28;20026;-64
2021/07/27 10:10:40;;;;;;;6.78;5.70;;;;;;;;;;5025493;28;20029;-63
2021/07/27 10:13:11;;;;;;;6.38;5.60;;;;;;;;;;5026927;28;20030;-65
2021/07/27 10:15:42;;;;;;;6.65;5.25;;;;;;;;;;5024776;28;20041;-65
2021/07/27 10:18:08;;;;;;;7.70;5.40;;;;;;;;;;5019897;28;20140;-65
2021/07/27 10:20:34;;;;;;;7.23;5.80;;;;;;;;;;5036258;28;20510;-63
2021/07/27 10:22:59;;;;;;;7.63;5.43;;;;;;;;;;5025372;28;20049;-63
2021/07/27 10:25:25;;;;;;;6.00;5.40;;;;;;;;;;5025980;28;20052;-63
2021/07/27 10:27:52;;;;;;;7.37;5.70;;;;;;;;;;5026324;28;20036;-64
2021/07/27 10:30:38;;;;;;;6.30;5.65;;;;;;;;;;5023685;28;20045;-62
2021/07/27 10:33:04;;;;;;;7.63;5.77;;;;;;;;;;5024549;28;20407;-63
2021/07/27 10:35:31;;;;;;;6.60;5.17;;;;;;;;;;5030488;28;20028;-63
2021/07/27 10:38:10;;;;;;;5.75;5.13;;;;;;;;;;5027970;28;20031;-64
2021/07/27 10:40:35;;;;;;;6.88;5.65;;;;;;;;;;5026005;28;20037;-66
2021/07/27 10:43:03;;;;;;;5.73;5.13;;;;;;;;;;5031783;28;20382;-62
2021/07/27 10:45:29;;;;;;;6.70;5.22;;;;;;;;;;5019449;28;20034;-66
2021/07/27 10:47:55;;;;;;;7.53;5.57;;;;;;;;;;5027291;28;20033;-65
2021/07/27 10:50:32;;;;;;;6.63;5.93;;;;;;;;;;5027273;28;20048;-65
2021/07/27 10:53:12;;;;;;;6.53;5.88;;;;;;;;;;5025656;28;20167;-64
2021/07/27 10:55:42;;;;;;;6.35;5.70;;;;;;;;;;5025666;28;20088;-63
2021/07/27 10:58:15;;;;;;;9.40;5.68;;;;;;;;;;5029033;28;20030;-65
2021/07/27 11:00:41;;;;;;;8.77;6.10;;;;;;;;;;5027321;28;20034;-63
2021/07/27 11:03:06;;;;;;;6.87;5.17;;;;;;;;;;5028276;28;20040;-65
2021/07/27 11:05:31;;;;;;;6.00;5.43;;;;;;;;;;5028056;28;20811;-66
2021/07/27 11:07:57;;;;;;;6.27;5.67;;;;;;;;;;5026249;28;20053;-65
2021/07/27 11:10:24;;;;;;;7.97;5.50;;;;;;;;;;5021872;28;20029;-66
2021/07/27 11:12:50;;;;;;;6.85;5.88;;;;;;;;;;4672070;28;10000554;-66
2021/07/27 11:15:21;;;;;;;6.32;5.72;;;;;;;;;;5016858;28;20036;-64
2021/07/27 11:17:46;;;;;;;6.47;5.40;;;;;;;;;;5022605;28;20379;-65
2021/07/27 11:20:14;;;;;;;5.97;5.37;;;;;;;;;;5023877;28;20029;-66
2021/07/27 11:22:53;;;;;;;6.78;5.63;;;;;;;;;;5026106;28;20041;-65
2021/07/27 11:25:20;;;;;;;5.88;5.13;;;;;;;;;;5022224;28;20036;-63
2021/07/27 11:27:46;;;;;;;9.10;5.63;;;;;;;;;;5026012;28;20483;-65
2021/07/27 11:30:13;;;;;;;7.70;5.40;;;;;;;;;;5023943;28;20033;-66
2021/07/27 11:32:51;;;;;;;6.82;5.50;;;;;;;;;;5023772;28;20042;-67
2021/07/27 11:35:22;;;;;;;6.38;5.72;;;;;;;;;;5024241;28;20048;-64
2021/07/27 11:38:03;;;;;;;7.20;5.65;;;;;;;;;;5024598;28;20036;-66
2021/07/27 11:40:31;;;;;;;9.25;5.47;;;;;;;;;;5024336;28;20037;-64
2021/07/27 11:43:09;;;;;;;6.38;5.63;;;;;;;;;;5024373;28;20124;-65
2021/07/27 11:45:41;;;;;;;6.90;5.65;;;;;;;;;;5020339;28;20502;-64
2021/07/27 11:48:08;;;;;;;8.48;5.47;;;;;;;;;;5026886;28;20033;-63
2021/07/27 11:50:42;;;;;;;7.25;5.45;;;;;;;;;;5026516;28;20088;-65
2021/07/27 11:53:09;;;;;;;6.93;5.47;;;;;;;;;;5025493;28;20029;-65
2021/07/27 11:55:40;;;;;;;6.97;5.47;;;;;;;;;;5023554;28;20029;-65
2021/07/27 11:58:09;;;;;;;8.38;5.68;;;;;;;;;;5023834;28;20021;-65
2021/07/27 12:00:36;;;;;;;6.68;5.97;;;;;;;;;;5025225;28;20025;-64
2021/07/27 12:03:05;;;;;;;7.97;5.65;;;;;;;;;;5024531;28;20039;-65
2021/07/27 12:05:32;;;;;;;10.23;6.10;;;;;;;;;;5020763;28;20033;-66
2021/07/27 12:07:57;;;;;;;6.45;5.70;;;;;;;;;;5023157;28;20025;-64
2021/07/27 12:10:25;;;;;;;6.70;6.00;;;;;;;;;;5024084;28;20052;-65
2021/07/27 12:12:51;;;;;;;8.52;6.30;;;;;;;;;;5024508;28;20212;-65
2021/07/27 12:15:18;;;;;;;6.53;5.80;;;;;;;;;;5021290;28;20033;-63
2021/07/27 12:17:44;;;;;;;7.13;5.60;;;;;;;;;;5021193;28;20036;-64
2021/07/27 12:20:13;;;;;;;7.30;5.57;;;;;;;;;;5024885;28;20025;-65
2021/07/27 12:22:39;;;;;;;7.05;5.60;;;;;;;;;;5025751;28;20021;-67
2021/07/27 12:25:06;;;;;;;7.32;5.78;;;;;;;;;;5024144;28;20542;-65
2021/07/27 12:27:32;;;;;;;6.05;5.28;;;;;;;;;;5024559;28;20057;-65
2021/07/27 12:29:57;;;;;;;6.97;6.27;;;;;;;;;;5021698;28;20100;-64
2021/07/27 12:32:22;;;;;;;6.55;5.63;;;;;;;;;;5023164;28;20061;-65
2021/07/27 12:34:48;;;;;;;7.03;6.32;;;;;;;;;;5022637;28;20520;-65
2021/07/27 12:37:13;;;;;;;9.30;6.00;;;;;;;;;;5023861;28;20409;-64
2021/07/27 12:39:39;;;;;;;6.43;5.63;;;;;;;;;;5026357;28;20045;-62
2021/07/27 12:42:04;;;;;;;6.50;5.80;;;;;;;;;;5021863;28;20172;-63
2021/07/27 12:44:31;;;;;;;6.32;5.70;;;;;;;;;;5024573;28;20029;-64
2021/07/27 12:46:58;;;;;;;7.22;5.57;;;;;;;;;;5025308;28;20053;-64
2021/07/27 12:49:23;;;;;;;6.38;5.60;;;;;;;;;;5025737;28;20018;-63
2021/07/27 12:51:49;;;;;;;6.75;6.05;;;;;;;;;;5026805;28;20017;-66
2021/07/27 12:54:14;;;;;;;12.27;4.18;;;;;;;;;;5026479;28;20033;-66
2021/07/27 12:56:40;;;;;;;7.07;3.97;;;;;;;;;;5025869;28;20029;-63
2021/07/27 12:59:06;;;;;;;9.93;4.45;;;;;;;;;;5023585;28;20198;-65
2021/07/27 13:01:33;;;;;;;9.85;4.28;;;;;;;;;;5022950;28;20025;-64
2021/07/27 13:04:02;;;;;;;9.98;3.53;;;;;;;;;;5025431;28;20071;-65
2021/07/27 13:06:27;;;;;;;12.45;3.28;;;;;;;;;;5022942;28;20037;-64
2021/07/27 13:08:53;;;;;;;8.98;3.60;;;;;;;;;;5025696;28;20032;-66
2021/07/27 13:11:19;;;;;;;14.30;4.00;;;;;;;;;;5026849;28;20111;-66
2021/07/27 13:13:44;;;;;;;8.77;3.33;;;;;;;;;;5024751;28;20136;-64
2021/07/27 13:16:09;;;;;;;8.82;3.67;;;;;;;;;;5024940;28;20031;-62
2021/07/27 13:18:37;;;;;;;7.70;3.42;;;;;;;;;;5025693;28;20112;-63
2021/07/27 13:21:03;;;;;;;4.45;3.47;;;;;;;;;;5024597;28;20033;-63
2021/07/27 13:23:28;;;;;;;10.30;4.10;;;;;;;;;;5026279;28;20036;-68
2021/07/27 13:25:55;;;;;;;5.55;3.58;;;;;;;;;;5024800;28;20025;-66
2021/07/27 13:28:21;;;;;;;5.65;3.60;;;;;;;;;;5025827;28;20813;-64
2021/07/27 13:30:46;;;;;;;5.45;3.60;;;;;;;;;;5024960;28;20029;-67
2021/07/27 13:33:11;;;;;;;4.28;3.72;;;;;;;;;;5024433;28;20053;-65
2021/07/27 13:35:37;;;;;;;6.50;3.60;;;;;;;;;;5024047;28;20029;-67
2021/07/27 13:38:02;;;;;;;4.97;3.78;;;;;;;;;;5025584;28;20032;-65
2021/07/27 13:40:28;;;;;;;7.90;4.07;;;;;;;;;;5024889;28;20028;-63
2021/07/27 13:42:54;;;;;;;13.23;4.15;;;;;;;;;;5026408;28;20029;-65
2021/07/27 13:45:20;;;;;;;5.90;4.20;;;;;;;;;;5022426;28;20049;-67
2021/07/27 13:47:45;;;;;;;5.90;4.03;;;;;;;;;;5025637;28;20109;-68
2021/07/27 13:50:11;;;;;;;7.65;4.28;;;;;;;;;;5023430;28;20098;-68
2021/07/27 13:52:37;;;;;;;4.60;3.50;;;;;;;;;;5026364;28;20017;-67
2021/07/27 13:55:02;;;;;;;7.50;3.70;;;;;;;;;;5023448;28;20102;-68
2021/07/27 13:57:28;;;;;;;5.68;3.95;;;;;;;;;;5021420;28;20106;-65
2021/07/27 13:59:58;;;;;;;4.90;3.40;;;;;;;;;;5021735;28;20044;-65
2021/07/27 14:02:23;;;;;;;7.05;3.40;;;;;;;;;;5021081;28;20815;-66
2021/07/27 14:04:49;;;;;;;9.32;3.60;;;;;;;;;;5019666;28;20025;-67
2021/07/27 14:07:15;;;;;;;6.65;3.42;;;;;;;;;;5021710;28;20632;-67
2021/07/27 14:09:40;;;;;;;4.13;3.05;;;;;;;;;;5023317;28;20060;-65
2021/07/27 14:12:06;;;;;;;4.60;3.45;;;;;;;;;;5022145;28;20544;-65
2021/07/27 14:14:31;;;;;;;7.72;3.38;;;;;;;;;;5021279;28;20398;-66
2021/07/27 14:16:58;;;;;;;4.43;2.97;;;;;;;;;;5019949;28;20123;-64
2021/07/27 14:19:23;;;;;;;4.15;2.95;;;;;;;;;;5018835;28;20025;-63
2021/07/27 14:21:48;;;;;;;4.70;3.35;;;;;;;;;;5021424;28;20669;-68
2021/07/27 14:24:16;;;;;;;4.47;3.30;;;;;;;;;;5023189;28;20053;-68
2021/07/27 14:26:42;;;;;;;5.65;3.70;;;;;;;;;;5023864;28;20029;-67
2021/07/27 14:29:07;;;;;;;5.22;3.67;;;;;;;;;;5019806;28;20051;-68
2021/07/27 14:31:32;;;;;;;6.72;3.50;;;;;;;;;;5023001;28;20025;-66
2021/07/27 14:33:58;;;;;;;7.57;3.85;;;;;;;;;;5021808;28;20045;-68
2021/07/27 14:36:24;;;;;;;5.40;3.78;;;;;;;;;;5022210;28;20104;-64
2021/07/27 14:38:50;;;;;;;5.85;3.67;;;;;;;;;;5023479;28;20506;-66
2021/07/27 14:41:15;;;;;;;5.28;3.58;;;;;;;;;;5022611;28;20041;-67
2021/07/27 14:43:41;;;;;;;6.45;3.75;;;;;;;;;;5022878;28;20032;-68
2021/07/27 14:46:07;;;;;;;6.18;3.72;;;;;;;;;;5020446;28;20040;-68
2021/07/27 14:48:33;;;;;;;4.70;3.53;;;;;;;;;;5021638;28;20084;-66
2021/07/27 14:50:58;;;;;;;5.25;3.60;;;;;;;;;;5022233;28;20175;-65
2021/07/27 14:53:24;;;;;;;5.75;3.80;;;;;;;;;;5027048;28;20033;-64
2021/07/27 14:55:49;;;;;;;3.83;3.30;;;;;;;;;;5025062;28;20021;-69
2021/07/27 14:58:15;;;;;;;5.40;3.00;;;;;;;;;;5028436;28;20029;-68
2021/07/27 15:00:40;;;;;;;4.47;3.20;;;;;;;;;;5027213;28;20123;-63